Details From LIBD - Bari Palese Macchie
To LGIR - Iraklion - Nizos Kazantzakis
Flight Number -
Tags generated
Created
Modified
Stats Distance 532 nm / 985 km
Max Altitude 35,000 ft / 10,668 m
Waypoints 10
Social Downloads 0
Likes 0
Share VATSIM

Download

Looking for another format? Having issues loading an existing format? Contact us
Advertisement - Login to hide

Notes

Basic altitude profile: - Ascent Rate: 2500ft/min - Ascent Speed: 250kts - Cruise Altitude: 35000ft - Cruise Speed: 420kts - Descent Rate: 1500ft/min - Descent Speed: 250kts Options: - Use NATs: yes - Use PACOTS: yes - Use low airways: yes - Use high airways: yes

Route

LIBD FASAN W97 BRD UL612 TRL UJ65 SOKRI LGIR

ID Type Via Altitude Latitude Longitude Leg Dist Tot Dist Heading (true) Name
O LIBD APT - 0 ft / 0 m 41.13787˚ 16.75832˚ - 0 nm - Bari Palese Macchie
FASAN FIX - 11,300 ft / 3,444 m 40.86389˚ 17.42694˚ 34 nm 34 nm 118° / 119° -
BRD VOR W97 (AWY-LO) 19,500 ft / 5,944 m 40.61083˚ 18.00278˚ 30 nm 64 nm 120° / 120° BRINDISI VORTAC
NOSTO FIX UL612 (AWY-HI) 35,000 ft / 10,668 m 39.81667˚ 19.00000˚ 66 nm 130 nm 136° / 137° -
EKVIS FIX UL612 (AWY-HI) 35,000 ft / 10,668 m 39.38333˚ 19.63361˚ 39 nm 170 nm 131° / 132° -
ORTOS FIX UL612 (AWY-HI) 35,000 ft / 10,668 m 38.96806˚ 20.22917˚ 37 nm 207 nm 132° / 132° -
ARA VOR UL612 (AWY-HI) 35,000 ft / 10,668 m 38.10972˚ 21.42528˚ 76 nm 283 nm 132° / 133° ARAXOS VOR-DME
TRL VOR UL612 (AWY-HI) 35,000 ft / 10,668 m 37.40275˚ 22.33963˚ 60 nm 344 nm 134° / 135° TRIPOLIS VOR-DME
SOKRI FIX UJ65 (AWY-HI) 23,500 ft / 7,163 m 36.25778˚ 23.47194˚ 87 nm 432 nm 141° / 142° -
O LGIR APT - 0 ft / 0 m 35.33949˚ 25.18012˚ 99 nm 531 nm 123° / 124° Iraklion - Nizos Kazantzakis

Altitude Profile

Advertisement - Login to hide

Weather


0- 5 10 15 20 25 30 35+ Temperature / ° C

Clouds and Precipitation
Forecast for 2017-12-18 18:00 UTC. Updated 2 hours ago

Ground ~20,000 ft ~40,000 ft Winds

LIBD

Details ICAO LIBD (BRI)
Name Bari Palese Macchie
Region Italy
Timezone Europe/Rome (UTC+1.0)
Stats Elevation 177 ft / 54 m (AMSL)
Location 41.137865° 16.758318°
Runways 1
Magnetic Variation 3.738° E

METAR

LIBD 181820Z 28013KT 9999 VCTS FEW020 SCT025CB 04/00 Q1021

Decode

TAF

TAF LIBD 181700Z 1818/1918 31014KT 9999 SCT030= TAF LIBP 181700Z 1818/1918 32012KT 9999 SCT030 TEMPO 1903/1906 SHRA

Decode

Departure Runways

ID Width Length Bearing (true) Bearing (mag) Surface Threshold Offset Overrun Length
07 148 ft / 45 m 9,262 ft / 2,823 m 69.39° 65.65° Asphalt 1,257 ft / 383 m 0 ft / 0 m
25 148 ft / 45 m 9,262 ft / 2,823 m 249.42° 245.68° Asphalt 0 ft / 0 m 194 ft / 59 m

LGIR

Details ICAO LGIR (HER)
Name Iraklion - Nizos Kazantzakis
Region Greece
Timezone Europe/Athens (UTC+2.0)
Stats Elevation 115 ft / 35 m (AMSL)
Location 35.339487° 25.180120°
Runways 3
Magnetic Variation 4.381° E

METAR

LGIR 181820Z 00000KT 9999 BKN025 15/08 Q1016 NOSIG

Decode

TAF

TAF LGIR 181700Z 1818/1918 30010KT 9999 BKN025 PROB30 TEMPO 1818/1824 5000 RA SCT010 BKN020 BECMG 1818/1820 18010KT BECMG 1906/1908 30010KT

Decode

Destination Runways

ID Width Length Bearing (true) Bearing (mag) Surface Threshold Offset Overrun Length
09 148 ft / 45 m 8,755 ft / 2,669 m 94.84° 90.46° Asphalt 1,565 ft / 477 m 200 ft / 61 m
12 164 ft / 50 m 5,136 ft / 1,566 m 126.27° 121.89° Asphalt 499 ft / 152 m 190 ft / 58 m
18 131 ft / 40 m 2,607 ft / 795 m 180.40° 176.02° Asphalt 0 ft / 0 m 0 ft / 0 m
27 148 ft / 45 m 8,755 ft / 2,669 m 274.86° 270.48° Asphalt 0 ft / 0 m 210 ft / 64 m
30 164 ft / 50 m 5,136 ft / 1,566 m 306.28° 301.90° Asphalt 0 ft / 0 m 0 ft / 0 m
36 131 ft / 40 m 2,607 ft / 795 m 0.40° 356.02° Asphalt 328 ft / 100 m 0 ft / 0 m

Popular Alternatives